Time;durP1;ratioP1;P1;durP2;ratioP2;P2;SDS_P1;SDS_P2;PMS_P1;PMS_P2;Temp;Humidity;BMP_temperature;BMP_pressure;BME280_temperature;BME280_humidity;BME280_pressure;Samples;Min_cycle;Max_cycle;Signal;HPM_P1;HPM_P2
2021/12/14 00:01:47;;;;;;;54.17;9.53;;;15.40;99.90;;;;;;5005276;28;20850;-62
2021/12/14 00:04:27;;;;;;;47.33;10.53;;;15.40;99.90;;;;;;5004067;28;20543;-61
2021/12/14 00:06:56;;;;;;;48.90;10.43;;;15.40;99.90;;;;;;5006372;28;20200;-61
2021/12/14 00:09:31;;;;;;;41.40;8.73;;;15.40;99.90;;;;;;5006008;28;20185;-61
2021/12/14 00:15:04;;;;;;;40.80;9.43;;;15.50;99.90;;;;;;5002889;28;20188;-62
2021/12/14 00:17:47;;;;;;;47.87;8.83;;;15.40;99.90;;;;;;5004553;28;20275;-63
2021/12/14 00:20:41;;;;;;;50.93;9.47;;;15.40;99.90;;;;;;5004741;28;20220;-62
2021/12/14 00:25:53;;;;;;;54.27;8.70;;;15.40;99.90;;;;;;5000252;28;20904;-62
2021/12/14 00:28:29;;;;;;;37.27;8.30;;;15.40;99.90;;;;;;5003679;28;20212;-63
2021/12/14 00:31:01;;;;;;;32.17;8.57;;;15.40;99.90;;;;;;5004997;28;20215;-62
2021/12/14 00:33:35;;;;;;;34.90;8.67;;;15.40;99.90;;;;;;5005071;28;20201;-63
2021/12/14 00:36:08;;;;;;;42.37;9.13;;;15.40;99.90;;;;;;5005036;28;20192;-62
2021/12/14 00:38:36;;;;;;;36.33;9.60;;;15.40;99.90;;;;;;5018444;28;20201;-63
2021/12/14 00:41:13;;;;;;;38.20;8.80;;;15.40;99.90;;;;;;5005150;28;20283;-62
2021/12/14 00:43:40;;;;;;;43.33;9.20;;;15.40;99.90;;;;;;5004829;28;20629;-63
2021/12/14 00:46:08;;;;;;;46.33;9.20;;;15.40;99.90;;;;;;5000627;28;20285;-62
2021/12/14 00:48:34;;;;;;;35.03;7.90;;;15.40;99.90;;;;;;5006079;28;20189;-63
2021/12/14 00:51:04;;;;;;;39.93;9.90;;;15.40;99.90;;;;;;4999113;28;20192;-64
2021/12/14 00:53:32;;;;;;;40.40;8.60;;;15.40;99.90;;;;;;5004817;28;20184;-63
2021/12/14 00:56:05;;;;;;;35.83;9.07;;;15.40;99.90;;;;;;5006349;28;20197;-63
2021/12/14 00:58:32;;;;;;;39.00;7.63;;;15.40;99.90;;;;;;5006135;28;20908;-64
2021/12/14 01:01:08;;;;;;;43.60;8.60;;;15.40;99.90;;;;;;5018690;28;20196;-64
2021/12/14 01:03:40;;;;;;;46.70;8.83;;;15.40;99.90;;;;;;5004638;28;20275;-63
2021/12/14 01:06:10;;;;;;;37.17;8.10;;;15.40;99.90;;;;;;4996875;28;20208;-63
2021/12/14 01:08:42;;;;;;;36.40;8.03;;;15.40;99.90;;;;;;5004370;28;20618;-64
2021/12/14 01:11:21;;;;;;;38.47;7.33;;;15.40;99.90;;;;;;5005133;28;20185;-63
2021/12/14 01:14:01;;;;;;;40.77;8.40;;;15.40;99.90;;;;;;5002569;28;20880;-64
2021/12/14 01:16:48;;;;;;;33.93;8.20;;;15.40;99.90;;;;;;5002149;28;20303;-62
2021/12/14 01:19:25;;;;;;;32.43;7.93;;;15.40;99.90;;;;;;5003365;28;20584;-63
2021/12/14 01:25:03;;;;;;;38.50;8.10;;;15.40;99.90;;;;;;5005586;28;20196;-63
2021/12/14 01:27:50;;;;;;;46.97;8.60;;;15.40;99.90;;;;;;5005714;28;20255;-63
2021/12/14 01:30:23;;;;;;;38.47;7.90;;;15.30;99.90;;;;;;4993691;28;20235;-64
2021/12/14 01:32:52;;;;;;;31.33;7.80;;;15.30;99.90;;;;;;5002086;28;20185;-64
2021/12/14 01:35:25;;;;;;;45.67;9.07;;;15.40;99.90;;;;;;5037750;28;20227;-63
2021/12/14 01:38:01;;;;;;;47.63;8.00;;;15.40;99.90;;;;;;5009381;28;20196;-63
2021/12/14 01:40:54;;;;;;;46.70;7.77;;;15.40;99.90;;;;;;5008137;28;20926;-63
2021/12/14 01:43:55;;;;;;;37.37;8.17;;;15.40;99.90;;;;;;5024920;28;20188;-62
2021/12/14 01:46:39;;;;;;;33.93;7.63;;;15.40;99.90;;;;;;4997777;28;20270;-62
2021/12/14 01:49:10;;;;;;;35.50;7.97;;;15.40;99.90;;;;;;4995495;28;20181;-62
2021/12/14 01:51:41;;;;;;;30.20;7.47;;;15.30;99.90;;;;;;5008352;28;20230;-63
2021/12/14 01:54:11;;;;;;;29.07;7.40;;;15.30;99.90;;;;;;5006390;28;20185;-62
2021/12/14 01:56:38;;;;;;;38.43;8.17;;;15.30;99.90;;;;;;5014467;28;20188;-63
2021/12/14 01:59:22;;;;;;;37.83;8.63;;;15.40;99.90;;;;;;5022938;28;20254;-64
2021/12/14 02:02:08;;;;;;;34.50;8.23;;;15.40;99.90;;;;;;5004450;28;20216;-62
2021/12/14 02:04:41;;;;;;;30.53;7.20;;;15.40;99.90;;;;;;5024208;28;20196;-63
2021/12/14 02:07:09;;;;;;;27.20;7.83;;;15.40;99.90;;;;;;5007382;28;20284;-63
2021/12/14 02:09:39;;;;;;;34.90;7.20;;;15.40;99.90;;;;;;5008037;28;20200;-63
2021/12/14 02:12:17;;;;;;;36.20;7.70;;;15.40;99.90;;;;;;5005300;28;20189;-63
2021/12/14 02:14:46;;;;;;;37.60;8.27;;;15.30;99.90;;;;;;5008304;28;20197;-62
2021/12/14 02:17:17;;;;;;;32.50;8.20;;;15.40;99.90;;;;;;5018164;28;20279;-63
2021/12/14 02:19:45;;;;;;;35.00;7.20;;;15.30;99.90;;;;;;5010409;28;20192;-63
2021/12/14 02:22:14;;;;;;;31.07;8.17;;;15.30;99.90;;;;;;5007605;28;20196;-63
2021/12/14 02:24:48;;;;;;;26.00;7.27;;;15.30;99.90;;;;;;5008607;28;20200;-63
2021/12/14 02:27:14;;;;;;;34.63;7.27;;;15.30;99.90;;;;;;5006786;28;20209;-62
2021/12/14 02:29:45;;;;;;;46.00;8.23;;;15.30;99.90;;;;;;5007267;28;20213;-62
2021/12/14 02:32:27;;;;;;;35.30;7.30;;;15.20;99.90;;;;;;4993807;28;20189;-63
2021/12/14 02:35:00;;;;;;;25.90;7.03;;;15.30;99.90;;;;;;5008918;28;20188;-63
2021/12/14 02:37:44;;;;;;;48.60;8.23;;;15.20;99.90;;;;;;5007424;28;20271;-63
2021/12/14 02:41:16;;;;;;;33.33;7.83;;;15.30;99.90;;;;;;5007961;28;20531;-64
2021/12/14 02:43:22;;;;;;;30.27;7.47;;;15.20;99.90;;;;;;5002334;28;20209;-62
2021/12/14 02:45:48;;;;;;;35.53;8.37;;;15.20;99.90;;;;;;5040798;28;20648;-63
2021/12/14 02:48:15;;;;;;;33.63;7.97;;;15.30;99.90;;;;;;5006844;28;20461;-63
2021/12/14 02:50:43;;;;;;;32.90;7.67;;;15.20;99.90;;;;;;4989836;28;20281;-62
2021/12/14 02:53:12;;;;;;;42.20;8.10;;;15.20;99.90;;;;;;5003890;28;20194;-64
2021/12/14 02:55:39;;;;;;;29.87;8.10;;;15.30;99.90;;;;;;5009285;28;20189;-63
2021/12/14 02:58:08;;;;;;;38.37;8.97;;;15.30;99.90;;;;;;5008060;28;20197;-63
2021/12/14 03:00:49;;;;;;;49.37;8.83;;;15.30;99.90;;;;;;5005835;28;20202;-63
2021/12/14 03:03:17;;;;;;;35.20;8.10;;;15.30;99.90;;;;;;5008095;28;20193;-63
2021/12/14 03:05:49;;;;;;;40.13;8.87;;;15.30;99.90;;;;;;5006180;28;20247;-62
2021/12/14 03:08:25;;;;;;;43.63;9.57;;;15.30;99.90;;;;;;5007153;28;20562;-62
2021/12/14 03:11:10;;;;;;;39.73;8.27;;;15.30;99.90;;;;;;5001879;28;20630;-62
2021/12/14 03:13:51;;;;;;;36.53;7.90;;;15.30;99.90;;;;;;5003749;28;20189;-62
2021/12/14 03:16:27;;;;;;;41.57;8.93;;;15.30;99.90;;;;;;5002158;28;20287;-62
2021/12/14 03:18:57;;;;;;;41.80;8.70;;;15.30;99.90;;;;;;5003519;28;20192;-62
2021/12/14 03:21:29;;;;;;;31.87;7.67;;;15.30;99.90;;;;;;5036965;28;20196;-63
2021/12/14 03:24:09;;;;;;;41.30;8.63;;;15.30;99.90;;;;;;5003372;28;20215;-62
2021/12/14 03:26:44;;;;;;;47.63;9.73;;;15.30;99.90;;;;;;4995364;28;20581;-63
2021/12/14 03:29:33;;;;;;;41.77;8.90;;;15.30;99.90;;;;;;4995935;28;20180;-62
2021/12/14 03:32:01;;;;;;;35.27;9.33;;;15.30;99.90;;;;;;5005301;28;20216;-64
2021/12/14 03:34:36;;;;;;;30.50;8.83;;;15.20;99.90;;;;;;5006553;28;20191;-62
2021/12/14 03:37:15;;;;;;;33.50;8.93;;;15.20;99.90;;;;;;5006946;28;20200;-63
2021/12/14 03:39:51;;;;;;;31.53;8.30;;;15.30;99.90;;;;;;5007926;28;20193;-62
2021/12/14 03:42:26;;;;;;;25.97;8.30;;;15.20;99.90;;;;;;5003663;28;20207;-62
2021/12/14 03:44:57;;;;;;;40.43;8.77;;;15.20;99.90;;;;;;5020518;28;20628;-62
2021/12/14 03:47:33;;;;;;;30.77;8.20;;;15.20;99.90;;;;;;5006044;28;20881;-62
2021/12/14 03:50:26;;;;;;;38.37;9.60;;;15.20;99.90;;;;;;5006034;28;20947;-63
2021/12/14 03:52:52;;;;;;;36.63;9.40;;;15.20;99.90;;;;;;5005534;28;20188;-63
2021/12/14 03:55:33;;;;;;;47.90;9.40;;;15.20;99.90;;;;;;5009525;28;20208;-63
2021/12/14 03:58:00;;;;;;;30.47;8.63;;;15.30;99.90;;;;;;5002415;28;20531;-63
2021/12/14 04:00:35;;;;;;;36.60;9.10;;;15.30;99.90;;;;;;5001506;28;20193;-62
2021/12/14 04:03:06;;;;;;;57.80;9.60;;;15.30;99.90;;;;;;5007158;28;20193;-63
2021/12/14 04:05:35;;;;;;;41.57;8.37;;;15.30;99.90;;;;;;5006448;28;20208;-64
2021/12/14 04:08:02;;;;;;;36.97;9.40;;;15.20;99.90;;;;;;5005504;28;20189;-64
2021/12/14 04:10:34;;;;;;;43.87;9.73;;;15.20;99.90;;;;;;5003317;28;20196;-64
2021/12/14 04:13:01;;;;;;;37.63;8.60;;;15.20;99.90;;;;;;5003636;28;20185;-64
2021/12/14 04:15:29;;;;;;;40.30;9.90;;;15.20;99.90;;;;;;5006126;28;20242;-64
2021/12/14 04:17:55;;;;;;;37.23;8.63;;;15.20;99.90;;;;;;5030187;28;20196;-63
2021/12/14 04:20:36;;;;;;;38.67;8.77;;;15.20;99.90;;;;;;5006907;28;20275;-63
2021/12/14 04:23:11;;;;;;;42.60;8.17;;;15.20;99.90;;;;;;5003410;28;20193;-64
2021/12/14 04:25:39;;;;;;;43.40;8.57;;;15.20;99.90;;;;;;4995780;28;20216;-63
2021/12/14 04:28:13;;;;;;;31.23;7.67;;;15.20;99.90;;;;;;5005078;28;20220;-64
2021/12/14 04:30:41;;;;;;;37.00;7.77;;;15.20;99.90;;;;;;5008800;28;20196;-64
2021/12/14 04:33:15;;;;;;;38.90;8.10;;;15.20;99.90;;;;;;5008658;28;20220;-63
2021/12/14 04:35:45;;;;;;;38.17;8.20;;;15.20;99.90;;;;;;4998781;28;20188;-63
2021/12/14 04:38:18;;;;;;;32.37;6.77;;;15.20;99.90;;;;;;5006109;28;20262;-63
2021/12/14 04:52:04;;;;;;;41.17;7.60;;;15.20;99.90;;;;;;5002794;28;20236;-65
2021/12/14 04:54:50;;;;;;;32.13;7.47;;;15.20;99.90;;;;;;5037177;28;20189;-64
2021/12/14 04:57:33;;;;;;;35.27;7.50;;;15.20;99.90;;;;;;4987995;28;20212;-63
2021/12/14 05:00:47;;;;;;;33.90;8.00;;;15.20;99.90;;;;;;5005249;28;20275;-64
2021/12/14 05:03:44;;;;;;;29.23;7.37;;;15.20;99.90;;;;;;5017110;28;20653;-63
2021/12/14 05:06:20;;;;;;;28.17;7.83;;;15.20;99.90;;;;;;4998204;28;20676;-62
2021/12/14 05:11:23;;;;;;;38.47;9.17;;;15.30;99.90;;;;;;5003787;28;20271;-64
2021/12/14 05:14:01;;;;;;;41.60;8.53;;;15.20;99.90;;;;;;5007141;28;20181;-62
2021/12/14 05:16:30;;;;;;;35.90;9.03;;;15.20;99.90;;;;;;5004846;28;20202;-63
2021/12/14 05:19:07;;;;;;;30.10;8.60;;;15.20;99.90;;;;;;5040316;28;20270;-63
2021/12/14 05:21:44;;;;;;;35.10;8.83;;;15.10;99.90;;;;;;5009249;28;20207;-62
2021/12/14 05:24:17;;;;;;;32.80;10.13;;;15.10;99.90;;;;;;5007839;28;20259;-63
2021/12/14 05:26:48;;;;;;;37.17;10.10;;;15.00;99.90;;;;;;5009242;28;20239;-62
2021/12/14 05:29:15;;;;;;;40.33;9.63;;;15.00;99.90;;;;;;5009594;28;20188;-63
2021/12/14 05:31:47;;;;;;;35.17;8.50;;;15.00;99.90;;;;;;5000138;28;20797;-62
2021/12/14 05:34:15;;;;;;;33.93;8.27;;;15.00;99.90;;;;;;5007689;28;20181;-64
2021/12/14 05:36:44;;;;;;;33.60;7.50;;;15.00;99.90;;;;;;5008968;28;20212;-62
2021/12/14 05:39:43;;;;;;;30.87;5.17;;;15.00;99.90;;;;;;5009368;28;20181;-63
2021/12/14 05:45:01;;;;;;;30.10;5.80;;;15.10;99.90;;;;;;5012512;28;20208;-63
2021/12/14 05:47:27;;;;;;;17.50;5.50;;;15.00;99.90;;;;;;5008379;28;20193;-63
2021/12/14 05:49:54;;;;;;;22.37;5.57;;;15.00;99.90;;;;;;5008767;28;20204;-63
2021/12/14 05:52:27;;;;;;;22.27;5.23;;;15.00;99.90;;;;;;5006197;28;20189;-64
2021/12/14 05:54:56;;;;;;;28.03;5.07;;;15.00;99.90;;;;;;5008581;28;20199;-64
2021/12/14 05:57:26;;;;;;;19.83;5.00;;;15.00;99.90;;;;;;5001143;28;20177;-65
2021/12/14 05:59:54;;;;;;;22.90;4.37;;;15.00;99.90;;;;;;5009452;28;20181;-65
2021/12/14 06:02:23;;;;;;;19.33;4.97;;;15.00;99.90;;;;;;5002422;28;20292;-63
2021/12/14 06:04:53;;;;;;;30.43;4.97;;;15.00;99.90;;;;;;5007377;28;20193;-64
2021/12/14 06:07:21;;;;;;;21.30;6.00;;;15.00;99.90;;;;;;4990948;28;20624;-62
2021/12/14 06:09:51;;;;;;;23.40;5.70;;;15.00;99.90;;;;;;5007842;28;21984;-64
2021/12/14 06:12:30;;;;;;;18.90;5.03;;;15.00;99.90;;;;;;5007171;28;20193;-64
2021/12/14 06:15:00;;;;;;;22.73;4.67;;;15.00;99.90;;;;;;5004248;28;20211;-63
2021/12/14 06:17:35;;;;;;;22.33;4.73;;;15.00;99.90;;;;;;5004063;28;20641;-62
2021/12/14 06:20:19;;;;;;;28.30;6.03;;;15.00;99.90;;;;;;5008618;28;20192;-63
2021/12/14 06:22:48;;;;;;;19.10;4.13;;;15.00;99.90;;;;;;5007343;28;20251;-64
2021/12/14 06:25:22;;;;;;;19.50;4.60;;;15.00;99.90;;;;;;5020276;28;20209;-64
2021/12/14 06:27:53;;;;;;;25.30;4.43;;;15.10;99.90;;;;;;5004183;28;20215;-64
2021/12/14 06:30:28;;;;;;;20.53;4.90;;;15.10;99.90;;;;;;5008014;28;20189;-63
2021/12/14 06:33:09;;;;;;;24.77;4.57;;;15.10;99.90;;;;;;5006378;28;20208;-64
2021/12/14 06:35:48;;;;;;;20.20;5.43;;;15.10;99.90;;;;;;5008515;28;20662;-62
2021/12/14 06:38:30;;;;;;;22.60;6.03;;;15.10;99.90;;;;;;5000035;28;20201;-63
2021/12/14 06:41:19;;;;;;;25.37;5.27;;;15.10;99.90;;;;;;5004885;28;20200;-64
2021/12/14 06:43:56;;;;;;;23.03;4.80;;;15.10;99.90;;;;;;5006905;28;20193;-66
2021/12/14 06:46:36;;;;;;;14.50;4.17;;;15.10;99.90;;;;;;5014441;28;20223;-64
2021/12/14 06:49:12;;;;;;;15.17;3.87;;;15.10;99.90;;;;;;4999749;28;20181;-65
2021/12/14 06:51:49;;;;;;;14.80;3.37;;;15.20;99.90;;;;;;5000320;28;20193;-65
2021/12/14 06:54:27;;;;;;;16.77;3.80;;;15.20;99.90;;;;;;5004345;28;20291;-65
2021/12/14 06:57:04;;;;;;;22.17;3.97;;;15.10;99.90;;;;;;5033768;28;20187;-65
2021/12/14 06:59:30;;;;;;;21.53;3.57;;;15.10;99.90;;;;;;5005420;28;20490;-64
2021/12/14 07:02:02;;;;;;;12.70;3.20;;;15.10;99.90;;;;;;5002712;28;20258;-65
2021/12/14 07:04:34;;;;;;;17.57;3.50;;;15.10;99.90;;;;;;5003988;28;20617;-64
2021/12/14 07:07:11;;;;;;;23.83;5.00;;;15.10;99.90;;;;;;5001850;28;20182;-64
2021/12/14 07:09:46;;;;;;;15.80;3.97;;;15.10;99.90;;;;;;5000017;28;20197;-64
2021/12/14 07:12:26;;;;;;;16.33;3.87;;;15.00;99.90;;;;;;5008162;28;20176;-65
2021/12/14 07:14:53;;;;;;;19.53;4.10;;;15.00;99.90;;;;;;5002423;28;20199;-64
2021/12/14 07:17:31;;;;;;;15.40;4.63;;;15.00;99.90;;;;;;5005544;28;20207;-64
2021/12/14 07:20:06;;;;;;;16.73;4.50;;;15.00;99.90;;;;;;5003519;28;20180;-64
2021/12/14 07:23:01;;;;;;;14.97;3.90;;;15.00;99.90;;;;;;5003259;28;20195;-64
2021/12/14 07:25:36;;;;;;;16.47;3.70;;;15.10;99.90;;;;;;5000977;28;20517;-64
2021/12/14 07:28:11;;;;;;;29.17;5.37;;;15.10;99.90;;;;;;5004203;28;20255;-64
2021/12/14 07:30:53;;;;;;;16.33;4.13;;;15.10;99.90;;;;;;5034475;28;20191;-64
2021/12/14 07:33:33;;;;;;;18.40;4.30;;;15.10;99.90;;;;;;5004556;28;20198;-65
2021/12/14 07:36:12;;;;;;;22.33;3.93;;;15.10;99.90;;;;;;5002168;28;20204;-64
2021/12/14 07:38:48;;;;;;;15.43;3.20;;;15.10;99.90;;;;;;5003294;28;20821;-65
2021/12/14 07:41:24;;;;;;;19.40;3.43;;;15.10;99.90;;;;;;4999540;28;20682;-65
2021/12/14 07:44:04;;;;;;;13.03;3.03;;;15.00;99.90;;;;;;5000339;28;20209;-64
2021/12/14 07:46:33;;;;;;;13.13;3.17;;;15.10;99.90;;;;;;5000764;28;20343;-64
2021/12/14 07:49:21;;;;;;;14.93;3.10;;;15.00;99.90;;;;;;4996391;28;20185;-65
2021/12/14 07:51:58;;;;;;;15.90;3.40;;;15.10;99.90;;;;;;5002837;28;20545;-64
2021/12/14 07:54:30;;;;;;;13.97;2.97;;;15.00;99.90;;;;;;5006895;28;20640;-64
2021/12/14 07:57:10;;;;;;;16.67;3.17;;;15.10;99.90;;;;;;5000165;28;20672;-65
2021/12/14 07:59:44;;;;;;;17.30;3.67;;;15.10;99.90;;;;;;5004887;28;20189;-64
2021/12/14 08:02:32;;;;;;;16.10;4.07;;;15.10;99.90;;;;;;5004024;28;20653;-65
2021/12/14 08:05:14;;;;;;;18.00;3.77;;;15.10;99.90;;;;;;4998593;28;20216;-65
2021/12/14 08:07:47;;;;;;;16.63;3.17;;;15.10;99.90;;;;;;5003265;28;20192;-65
2021/12/14 08:10:18;;;;;;;16.33;3.30;;;15.10;99.90;;;;;;5002958;28;20243;-66
2021/12/14 08:13:14;;;;;;;14.90;3.83;;;15.10;99.90;;;;;;5003168;28;20642;-65
2021/12/14 08:15:53;;;;;;;20.53;2.87;;;15.10;99.90;;;;;;5001899;28;20197;-66
2021/12/14 08:18:36;;;;;;;24.67;3.40;;;15.10;99.90;;;;;;5002926;28;20192;-65
2021/12/14 08:21:17;;;;;;;14.60;2.93;;;15.10;99.90;;;;;;5000455;28;20882;-64
2021/12/14 08:23:54;;;;;;;16.00;2.90;;;15.10;99.90;;;;;;4999266;28;20251;-65
2021/12/14 08:26:43;;;;;;;11.67;2.53;;;15.10;99.90;;;;;;5002960;28;21185;-66
2021/12/14 08:29:28;;;;;;;10.93;2.33;;;15.10;99.90;;;;;;5004894;28;20255;-66
2021/12/14 08:32:12;;;;;;;10.97;2.50;;;15.10;99.90;;;;;;5003354;28;20231;-64
2021/12/14 08:34:46;;;;;;;11.87;2.53;;;15.10;99.90;;;;;;5001948;28;20180;-65
2021/12/14 10:44:30;;;;;;;10.67;2.33;;;15.60;99.90;;;;;;5115080;27;20177;-65
2021/12/14 10:47:23;;;;;;;6.70;2.03;;;15.60;99.90;;;;;;5115402;27;20812;-64
2021/12/14 10:50:17;;;;;;;9.97;2.30;;;15.60;99.90;;;;;;5112911;27;20189;-65
2021/12/14 10:53:09;;;;;;;8.53;2.03;;;15.60;99.90;;;;;;5116368;28;20342;-65
2021/12/14 10:56:04;;;;;;;13.20;3.17;;;15.50;99.90;;;;;;5112299;28;20223;-65
2021/12/14 10:58:59;;;;;;;9.07;2.20;;;15.50;99.90;;;;;;5114875;27;20226;-64
2021/12/14 11:01:49;;;;;;;11.57;2.23;;;15.50;99.90;;;;;;5108797;28;20227;-64
2021/12/14 11:04:56;;;;;;;8.13;1.67;;;15.50;99.90;;;;;;5110290;28;20265;-64
2021/12/14 11:07:47;;;;;;;8.53;1.80;;;15.60;99.90;;;;;;5106305;27;20230;-65
2021/12/14 11:10:39;;;;;;;12.63;1.87;;;15.60;99.90;;;;;;5104685;27;20281;-65
2021/12/14 11:13:26;;;;;;;9.13;1.80;;;15.70;99.90;;;;;;5122576;27;20185;-65
2021/12/14 11:16:34;;;;;;;6.20;2.03;;;15.80;99.90;;;;;;5113584;27;20193;-65
2021/12/14 11:19:58;;;;;;;9.90;2.37;;;15.80;99.90;;;;;;5110400;27;20192;-65
2021/12/14 11:23:09;;;;;;;12.93;2.20;;;15.90;99.90;;;;;;5099780;28;20190;-66
2021/12/14 11:26:17;;;;;;;5.20;1.57;;;15.90;99.90;;;;;;5099634;28;20655;-65
2021/12/14 11:45:45;;;;;;;4.87;1.40;;;15.80;99.90;;;;;;5145467;27;20576;-63
2021/12/14 11:48:37;;;;;;;7.77;1.57;;;15.70;99.90;;;;;;5138661;27;20298;-63
2021/12/14 11:51:27;;;;;;;3.77;1.40;;;15.70;99.90;;;;;;5128062;27;20256;-66
2021/12/14 11:54:18;;;;;;;9.13;1.67;;;15.80;99.90;;;;;;5139368;27;20177;-66
2021/12/14 11:57:06;;;;;;;7.87;1.87;;;15.80;99.90;;;;;;5140085;27;21029;-62
2021/12/14 12:00:22;;;;;;;6.43;1.20;;;15.90;99.90;;;;;;5130030;27;20645;-64
2021/12/14 12:04:02;;;;;;;12.53;2.37;;;15.90;99.90;;;;;;5136991;27;20214;-66
2021/12/14 12:09:56;;;;;;;7.80;1.83;;;16.00;99.90;;;;;;5158245;27;20183;-66
2021/12/14 12:12:43;;;;;;;6.93;1.70;;;15.90;99.90;;;;;;5157094;27;20196;-63
2021/12/14 12:15:30;;;;;;;11.00;1.67;;;15.80;99.90;;;;;;5144335;27;20503;-66
2021/12/14 12:18:16;;;;;;;7.03;1.80;;;15.80;99.90;;;;;;5144002;27;20243;-67
2021/12/14 12:21:04;;;;;;;10.37;1.97;;;15.70;99.90;;;;;;5131120;27;20752;-65
2021/12/14 12:23:51;;;;;;;6.00;1.60;;;15.60;99.90;;;;;;5128483;27;20218;-65
2021/12/14 12:26:38;;;;;;;9.47;2.27;;;15.50;99.90;;;;;;5143169;27;20187;-63
2021/12/14 12:29:27;;;;;;;3.80;1.40;;;15.30;99.90;;;;;;5151784;27;20184;-65
2021/12/14 12:32:21;;;;;;;7.27;2.80;;;15.30;99.90;;;;;;5147194;27;20188;-66
2021/12/14 12:35:34;;;;;;;10.10;3.20;;;15.20;99.90;;;;;;5140679;27;20212;-65
2021/12/14 12:38:33;;;;;;;4.87;1.90;;;15.10;99.90;;;;;;5116968;27;20188;-65
2021/12/14 12:41:28;;;;;;;10.60;2.50;;;15.00;99.90;;;;;;5134711;27;20184;-66
2021/12/14 12:44:25;;;;;;;8.63;2.00;;;15.00;99.90;;;;;;5131424;27;20567;-65
2021/12/14 12:47:25;;;;;;;9.20;2.00;;;14.90;99.90;;;;;;5114409;27;20700;-66
2021/12/14 12:50:11;;;;;;;10.43;2.07;;;14.90;99.90;;;;;;5122505;27;20200;-67
2021/12/14 12:52:58;;;;;;;11.17;1.90;;;14.90;99.90;;;;;;5116396;27;20185;-66
2021/12/14 12:55:45;;;;;;;6.50;2.03;;;14.90;99.90;;;;;;5119838;27;20292;-66
2021/12/14 12:58:40;;;;;;;10.43;2.37;;;14.80;99.90;;;;;;5119309;27;20296;-66
2021/12/14 13:01:32;;;;;;;6.00;2.00;;;14.90;99.90;;;;;;5113925;27;20200;-66
2021/12/14 13:04:42;;;;;;;11.03;2.07;;;14.80;99.90;;;;;;5122812;27;20758;-65
2021/12/14 13:07:44;;;;;;;5.27;1.87;;;14.80;99.90;;;;;;5134583;27;20196;-65
2021/12/14 13:11:18;;;;;;;5.90;1.70;;;14.80;99.90;;;;;;5103469;27;20275;-65
2021/12/14 13:14:16;;;;;;;7.00;1.83;;;14.70;99.90;;;;;;5119795;27;20188;-66
2021/12/14 13:17:04;;;;;;;5.03;1.93;;;14.70;99.90;;;;;;5116938;27;20208;-65
2021/12/14 13:19:59;;;;;;;6.40;1.70;;;14.80;99.90;;;;;;5118057;27;20196;-66
2021/12/14 13:22:49;;;;;;;6.13;2.13;;;14.80;99.90;;;;;;5124357;27;20193;-63
2021/12/14 13:25:41;;;;;;;5.40;2.00;;;14.80;99.90;;;;;;5118126;27;20700;-66
2021/12/14 13:28:40;;;;;;;8.60;2.90;;;14.70;99.90;;;;;;5133463;27;20192;-66
2021/12/14 13:31:55;;;;;;;8.83;3.47;;;14.80;99.90;;;;;;5133505;27;20304;-66
2021/12/14 13:35:03;;;;;;;11.77;3.67;;;14.80;99.90;;;;;;5113556;27;21032;-65
2021/12/14 13:38:05;;;;;;;10.63;3.07;;;14.70;99.90;;;;;;5103672;27;20567;-66
2021/12/14 13:40:54;;;;;;;10.67;4.20;;;14.70;99.90;;;;;;5099848;27;20253;-66
2021/12/14 13:43:41;;;;;;;10.33;4.23;;;14.70;99.90;;;;;;5122453;27;20209;-65
2021/12/14 13:46:28;;;;;;;9.27;4.00;;;14.70;99.90;;;;;;5107701;27;20662;-66
2021/12/14 13:49:15;;;;;;;16.37;6.70;;;14.70;99.90;;;;;;5113167;27;20189;-67
2021/12/14 13:52:05;;;;;;;19.20;5.80;;;14.60;99.90;;;;;;5118202;27;20181;-66
2021/12/14 13:55:27;;;;;;;11.53;4.90;;;14.60;99.90;;;;;;5121664;27;20245;-65
2021/12/14 13:58:26;;;;;;;15.10;5.40;;;14.60;99.90;;;;;;5114819;27;20193;-66
2021/12/14 14:01:31;;;;;;;12.30;4.67;;;14.60;99.90;;;;;;5107523;27;20874;-65
2021/12/14 14:04:23;;;;;;;7.90;2.57;;;14.50;99.90;;;;;;5126306;27;20201;-65
2021/12/14 14:07:12;;;;;;;10.47;4.17;;;14.50;99.90;;;;;;5117378;27;20184;-62
2021/12/14 14:09:59;;;;;;;15.80;4.83;;;14.50;99.90;;;;;;5122735;27;20256;-66
2021/12/14 14:13:06;;;;;;;14.23;4.73;;;14.50;99.90;;;;;;5113523;27;20632;-66
2021/12/14 14:15:56;;;;;;;13.13;3.63;;;14.50;99.90;;;;;;5117229;27;20203;-65
2021/12/14 14:18:51;;;;;;;8.97;2.30;;;14.40;99.90;;;;;;5118461;27;20240;-63
2021/12/14 14:21:40;;;;;;;8.30;1.77;;;14.40;99.90;;;;;;5119411;27;20813;-64
2021/12/14 14:24:35;;;;;;;9.33;1.87;;;14.30;99.90;;;;;;5123998;27;20241;-67
2021/12/14 14:27:58;;;;;;;10.53;1.70;;;14.30;99.90;;;;;;5117732;27;20192;-64
2021/12/14 14:30:53;;;;;;;10.27;1.83;;;14.30;99.90;;;;;;5122662;27;20197;-64
2021/12/14 14:33:52;;;;;;;9.17;2.00;;;14.20;99.90;;;;;;5118899;27;20190;-64
2021/12/14 14:36:42;;;;;;;7.47;1.80;;;14.20;99.90;;;;;;5116339;27;20180;-63
2021/12/14 14:39:47;;;;;;;6.77;1.50;;;14.20;99.90;;;;;;5123386;27;20237;-66
2021/12/14 14:42:39;;;;;;;5.43;1.93;;;14.10;99.90;;;;;;5125376;27;20276;-65
2021/12/14 14:45:28;;;;;;;5.43;1.87;;;14.00;99.90;;;;;;5120932;27;20833;-65
2021/12/14 14:48:27;;;;;;;8.53;1.70;;;14.00;99.90;;;;;;5120815;27;20568;-64
2021/12/14 14:51:56;;;;;;;9.37;2.13;;;13.90;99.90;;;;;;5099497;27;20192;-63
2021/12/14 14:54:54;;;;;;;7.73;1.97;;;13.90;99.90;;;;;;5109244;27;20208;-64
2021/12/14 14:58:00;;;;;;;12.00;2.10;;;13.80;99.90;;;;;;5122950;27;20199;-63
2021/12/14 15:00:49;;;;;;;8.67;1.40;;;13.80;99.90;;;;;;5104406;27;20888;-64
2021/12/14 15:03:46;;;;;;;4.57;1.40;;;13.80;99.90;;;;;;5122206;27;20207;-63
2021/12/14 15:06:39;;;;;;;6.63;1.60;;;13.80;99.90;;;;;;5110258;27;20639;-65
2021/12/14 15:09:31;;;;;;;6.10;1.40;;;13.80;99.90;;;;;;5122392;27;20710;-67
2021/12/14 15:12:20;;;;;;;5.10;1.60;;;13.70;99.90;;;;;;5117475;27;20664;-65
2021/12/14 15:15:19;;;;;;;8.27;1.60;;;13.70;99.90;;;;;;5110161;27;20925;-66
2021/12/14 15:18:06;;;;;;;7.10;1.80;;;13.80;99.90;;;;;;5113299;27;20196;-65
2021/12/14 15:20:54;;;;;;;6.77;1.70;;;13.70;99.90;;;;;;5099274;28;20231;-66
2021/12/14 15:23:41;;;;;;;4.73;1.27;;;13.60;99.90;;;;;;5119756;27;20288;-65
2021/12/14 15:26:27;;;;;;;8.00;1.23;;;13.50;99.90;;;;;;5122043;27;20897;-65
2021/12/14 15:29:29;;;;;;;5.60;1.37;;;13.50;99.90;;;;;;5118292;27;20242;-66
2021/12/14 15:32:19;;;;;;;3.50;1.37;;;13.60;99.90;;;;;;5109861;27;20207;-66
2021/12/14 15:35:18;;;;;;;5.27;1.50;;;13.50;99.90;;;;;;5119424;28;20684;-65
2021/12/14 15:38:26;;;;;;;6.13;1.47;;;13.40;99.90;;;;;;5114753;28;20210;-66
2021/12/14 15:41:39;;;;;;;14.03;3.20;;;13.40;99.90;;;;;;5120275;28;20194;-65
2021/12/14 15:44:40;;;;;;;4.80;1.60;;;13.30;99.90;;;;;;5105318;28;20213;-65
2021/12/14 15:47:27;;;;;;;8.37;1.63;;;13.40;99.90;;;;;;5123110;27;20196;-66
2021/12/14 15:50:21;;;;;;;4.07;1.27;;;13.30;99.90;;;;;;5124772;27;20267;-65
2021/12/14 15:53:33;;;;;;;4.67;1.60;;;13.20;99.90;;;;;;5116747;27;20911;-65
2021/12/14 15:56:26;;;;;;;4.77;1.10;;;13.10;99.90;;;;;;5125046;27;20183;-64
2021/12/14 15:59:29;;;;;;;5.97;1.30;;;13.00;99.90;;;;;;5127026;27;20237;-64
2021/12/14 16:02:23;;;;;;;3.27;1.10;;;13.00;99.90;;;;;;5099732;27;20287;-64
2021/12/14 16:05:19;;;;;;;2.83;0.70;;;12.90;99.90;;;;;;5117327;27;20212;-66
2021/12/14 16:08:06;;;;;;;6.77;1.27;;;12.90;99.90;;;;;;5120092;28;20219;-66
2021/12/14 16:11:08;;;;;;;4.40;1.10;;;12.90;99.90;;;;;;5119183;28;20249;-65
2021/12/14 16:17:23;;;;;;;3.27;1.10;;;12.60;99.90;;;;;;5119756;28;20200;-66
2021/12/14 16:20:22;;;;;;;7.03;1.10;;;12.50;99.90;;;;;;5121630;27;20249;-66
2021/12/14 16:23:17;;;;;;;4.70;0.90;;;12.40;99.90;;;;;;5088630;27;20185;-65
2021/12/14 16:26:11;;;;;;;2.03;0.70;;;12.50;99.90;;;;;;5120171;27;20192;-65
2021/12/14 16:29:05;;;;;;;2.20;0.80;;;12.50;99.90;;;;;;5123854;27;20184;-65
2021/12/14 16:31:52;;;;;;;2.30;0.60;;;12.40;99.90;;;;;;5126836;27;20694;-66
2021/12/14 16:34:38;;;;;;;2.33;0.80;;;12.40;99.90;;;;;;5123303;27;20696;-67
2021/12/14 16:37:33;;;;;;;4.37;0.77;;;12.40;99.90;;;;;;5128051;27;20185;-65
2021/12/14 16:40:20;;;;;;;3.40;0.77;;;12.30;99.90;;;;;;5119207;27;20220;-65
2021/12/14 16:43:22;;;;;;;1.80;0.87;;;12.20;99.90;;;;;;5131048;27;20192;-65
2021/12/14 16:46:21;;;;;;;2.37;0.80;;;12.20;99.90;;;;;;5129107;27;20200;-66
2021/12/14 16:49:14;;;;;;;1.33;0.70;;;12.10;99.90;;;;;;5123070;27;20292;-67
2021/12/14 16:52:08;;;;;;;4.17;1.00;;;12.10;99.90;;;;;;5123887;27;20207;-66
2021/12/14 16:54:56;;;;;;;3.43;1.10;;;12.10;99.90;;;;;;5102265;27;20192;-66
2021/12/14 16:57:44;;;;;;;3.50;0.53;;;12.10;99.90;;;;;;5123041;27;20271;-66
2021/12/14 17:00:50;;;;;;;1.73;0.60;;;12.10;99.90;;;;;;5119881;27;20279;-66